S/y Mustique — MKGM5 — position and weather

sailwx.info

Track history (hours):
 
Tides and Currents Weather Stations Pressure Air Temp Water Temp Dewpoint Dewpoint Depression Visibility Wind Speed Wind Dir Waves Ship Positions

S/y Mustique

Last reported at 2018-May-23 20:37 UTC. Time now 2018-Jun-19 02:37 UTC.
Position N 38°18' E 015°20'.
Warning: this ship's position is 26 days out of date.

Length 22 m.

Type: Sailing vessel. MMSI: 235030213.

Date/timePositionNaut miles runAvg speedWind from/ knotsBaromVisibWave heightAir tempDewpointWater temp
2018-May-23 20:37N 38°18' E 015°20'1 8.6
2018-May-23 20:30N 38°18' E 015°19'5 8.5
2018-May-23 19:58N 38°17' E 015°13'82 7.5
2018-May-23 09:03N 38°08' E 013°29'0 8.1
2018-May-23 08:59N 38°08' E 013°29'4 7.9
2018-May-23 08:30N 38°07' E 013°24'1 2.7
2018-May-23 08:00N 38°07' E 013°22'0 0.1
2018-May-23 07:24N 38°07' E 013°22'0 0.0
2018-May-23 07:00N 38°07' E 013°22'0 0.0
2018-May-23 06:30N 38°07' E 013°22'0 0.0
2018-May-23 05:45N 38°07' E 013°22'0 0.0
2018-May-23 05:27N 38°07' E 013°22'0 0.0
2018-May-23 04:57N 38°07' E 013°22'0 0.0
2018-May-23 04:21N 38°07' E 013°22'0 0.0
2018-May-23 03:33N 38°07' E 013°22'0 0.0
2018-May-23 03:15N 38°07' E 013°22'0 0.0
2018-May-23 03:00N 38°07' E 013°22'0 0.0
2018-May-23 02:27N 38°07' E 013°22'0 0.0
2018-May-23 01:57N 38°07' E 013°22'0 0.0
2018-May-23 01:27N 38°07' E 013°22'0 0.0
2018-May-23 00:51N 38°07' E 013°22'0 0.0
2018-May-23 00:27N 38°07' E 013°22'0 0.0
2018-May-22 23:57N 38°07' E 013°22'0 0.0
2018-May-22 23:27N 38°07' E 013°22'0 0.0
2018-May-22 22:57N 38°07' E 013°22'0 0.0
2018-May-22 22:27N 38°07' E 013°22'0 0.0
2018-May-22 21:57N 38°07' E 013°22'0 0.0
2018-May-22 20:57N 38°07' E 013°22'0 0.0
2018-May-22 20:27N 38°07' E 013°22'0 0.0
2018-May-22 17:54N 38°07' E 013°22'0 0.0
2018-May-22 17:30N 38°07' E 013°22'0 0.0
2018-May-22 16:38N 38°07' E 013°22'0 0.0
2018-May-22 16:29N 38°07' E 013°22'0 0.0
2018-May-22 15:53N 38°07' E 013°22'0 0.0
2018-May-22 15:21N 38°07' E 013°22'2 4.4
2018-May-22 15:00N 38°09' E 013°23'4 8.5
2018-May-22 14:30N 38°13' E 013°21'4 8.2
2018-May-22 14:00N 38°14' E 013°16'  
Track history (hours):
 
Tides and Currents Weather Stations Pressure Air Temp Water Temp Dewpoint Dewpoint Depression Visibility Wind Speed Wind Dir Waves Ship Positions

S/y Mustique

Last reported at 2018-May-23 20:37 UTC. Time now 2018-Jun-19 02:37 UTC.
Position N 38°18' E 015°20'.
Warning: this ship's position is 26 days out of date.

Length 22 m.

Type: Sailing vessel. MMSI: 235030213.

Date/timePositionNaut miles runAvg speedWind from/ knotsBaromVisibWave heightAir tempDewpointWater temp
2018-May-23 20:37N 38°18' E 015°20'1 8.6
2018-May-23 20:30N 38°18' E 015°19'5 8.5
2018-May-23 19:58N 38°17' E 015°13'82 7.5
2018-May-23 09:03N 38°08' E 013°29'0 8.1
2018-May-23 08:59N 38°08' E 013°29'4 7.9
2018-May-23 08:30N 38°07' E 013°24'1 2.7
2018-May-23 08:00N 38°07' E 013°22'0 0.1
2018-May-23 07:24N 38°07' E 013°22'0 0.0
2018-May-23 07:00N 38°07' E 013°22'0 0.0
2018-May-23 06:30N 38°07' E 013°22'0 0.0
2018-May-23 05:45N 38°07' E 013°22'0 0.0
2018-May-23 05:27N 38°07' E 013°22'0 0.0
2018-May-23 04:57N 38°07' E 013°22'0 0.0
2018-May-23 04:21N 38°07' E 013°22'0 0.0
2018-May-23 03:33N 38°07' E 013°22'0 0.0
2018-May-23 03:15N 38°07' E 013°22'0 0.0
2018-May-23 03:00N 38°07' E 013°22'0 0.0
2018-May-23 02:27N 38°07' E 013°22'0 0.0
2018-May-23 01:57N 38°07' E 013°22'0 0.0
2018-May-23 01:27N 38°07' E 013°22'0 0.0
2018-May-23 00:51N 38°07' E 013°22'0 0.0
2018-May-23 00:27N 38°07' E 013°22'0 0.0
2018-May-22 23:57N 38°07' E 013°22'0 0.0
2018-May-22 23:27N 38°07' E 013°22'0 0.0
2018-May-22 22:57N 38°07' E 013°22'0 0.0
2018-May-22 22:27N 38°07' E 013°22'0 0.0
2018-May-22 21:57N 38°07' E 013°22'0 0.0
2018-May-22 20:57N 38°07' E 013°22'0 0.0
2018-May-22 20:27N 38°07' E 013°22'0 0.0
2018-May-22 17:54N 38°07' E 013°22'0 0.0
2018-May-22 17:30N 38°07' E 013°22'0 0.0
2018-May-22 16:38N 38°07' E 013°22'0 0.0
2018-May-22 16:29N 38°07' E 013°22'0 0.0
2018-May-22 15:53N 38°07' E 013°22'0 0.0
2018-May-22 15:21N 38°07' E 013°22'2 4.4
2018-May-22 15:00N 38°09' E 013°23'4 8.5
2018-May-22 14:30N 38°13' E 013°21'4 8.2
2018-May-22 14:00N 38°14' E 013°16'  

Dump ship's entire track history